createdAt,value
2023-12-14T00:01:50.491Z,6.85
2023-12-14T00:04:17.394Z,6.76
2023-12-14T00:06:44.080Z,6.71
2023-12-14T00:09:10.652Z,6.72
2023-12-14T00:11:40.796Z,6.73
2023-12-14T00:14:07.816Z,6.73
2023-12-14T00:16:34.763Z,6.74
2023-12-14T00:19:01.463Z,6.72
2023-12-14T00:21:28.222Z,6.75
2023-12-14T00:23:54.824Z,6.75
2023-12-14T00:26:21.546Z,6.77
2023-12-14T00:28:48.216Z,6.77
2023-12-14T00:31:14.756Z,6.76
2023-12-14T00:33:41.603Z,6.77
2023-12-14T00:36:08.731Z,6.72
2023-12-14T00:38:35.292Z,6.68
2023-12-14T00:41:02.008Z,6.65
2023-12-14T00:43:28.611Z,6.69
2023-12-14T00:45:55.150Z,6.73
2023-12-14T00:48:21.807Z,6.72
2023-12-14T00:50:48.466Z,6.65
2023-12-14T00:53:15.144Z,6.62
2023-12-14T00:55:41.900Z,6.65
2023-12-14T00:58:08.487Z,6.67
2023-12-14T01:00:35.046Z,6.67
2023-12-14T01:03:01.634Z,6.69
2023-12-14T01:05:28.370Z,6.71
2023-12-14T01:07:54.958Z,6.71
2023-12-14T01:10:21.470Z,6.70
2023-12-14T01:12:48.077Z,6.70
2023-12-14T01:15:14.778Z,6.68
2023-12-14T01:17:42.267Z,6.67
2023-12-14T01:20:09.205Z,6.68
2023-12-14T01:22:36.281Z,6.68
2023-12-14T01:25:03.267Z,6.67
2023-12-14T01:27:29.839Z,6.69
2023-12-14T01:29:56.377Z,6.68
2023-12-14T01:32:22.912Z,6.70
2023-12-14T01:34:49.513Z,6.69
2023-12-14T01:37:16.122Z,6.69
2023-12-14T01:39:42.605Z,6.69
2023-12-14T01:42:20.339Z,6.67
2023-12-14T01:44:46.810Z,6.68
2023-12-14T01:47:13.508Z,6.70
2023-12-14T01:49:42.610Z,6.69
2023-12-14T01:52:20.609Z,6.70
2023-12-14T01:54:56.375Z,6.70
2023-12-14T01:57:23.141Z,6.69
2023-12-14T01:59:49.701Z,6.69
2023-12-14T02:02:16.423Z,6.68
2023-12-14T02:04:43.058Z,6.65
2023-12-14T02:07:10.797Z,6.63
2023-12-14T02:09:40.692Z,6.59
2023-12-14T02:12:07.809Z,6.57
2023-12-14T02:14:34.449Z,6.57
2023-12-14T02:17:01.104Z,6.55
2023-12-14T02:19:27.790Z,6.58
2023-12-14T02:21:54.435Z,6.57
2023-12-14T02:24:22.027Z,6.57
2023-12-14T02:27:02.065Z,6.57
2023-12-14T02:29:30.437Z,6.58
2023-12-14T02:31:57.062Z,6.59
2023-12-14T02:34:26.036Z,6.56
2023-12-14T02:36:53.070Z,6.47
2023-12-14T02:39:19.619Z,6.47
2023-12-14T02:41:46.177Z,6.50
2023-12-14T02:44:12.825Z,6.54
2023-12-14T02:46:39.498Z,6.47
2023-12-14T02:49:19.524Z,6.47
2023-12-14T02:51:46.064Z,6.47
2023-12-14T02:54:12.584Z,6.48
2023-12-14T02:56:39.077Z,6.49
2023-12-14T02:59:05.821Z,6.49
2023-12-14T03:01:35.570Z,6.49
2023-12-14T03:04:08.894Z,6.48
2023-12-14T03:06:35.349Z,6.49
2023-12-14T03:09:01.885Z,6.50
2023-12-14T03:11:28.439Z,6.52
2023-12-14T03:13:55.074Z,6.49
2023-12-14T03:16:22.590Z,6.49
2023-12-14T03:18:53.573Z,6.49
2023-12-14T03:21:21.046Z,6.48
2023-12-14T03:23:47.607Z,6.44
2023-12-14T03:26:14.204Z,6.44
2023-12-14T03:28:40.930Z,6.43
2023-12-14T03:31:07.523Z,6.44
2023-12-14T03:33:34.134Z,6.44
2023-12-14T03:36:00.742Z,6.45
2023-12-14T03:38:27.259Z,6.45
2023-12-14T03:40:53.804Z,6.43
2023-12-14T03:43:20.383Z,6.43
2023-12-14T03:45:46.910Z,6.45
2023-12-14T03:48:13.574Z,6.45
2023-12-14T03:50:40.202Z,6.45
2023-12-14T03:53:06.786Z,6.46
2023-12-14T03:55:33.849Z,6.47
2023-12-14T03:58:00.485Z,6.48
2023-12-14T04:00:27.150Z,6.47
2023-12-14T04:02:53.782Z,6.46
2023-12-14T04:05:20.476Z,6.45
2023-12-14T04:07:47.250Z,6.46
2023-12-14T04:10:14.555Z,6.45
2023-12-14T04:12:41.880Z,6.45
2023-12-14T04:15:10.332Z,6.46
2023-12-14T04:17:37.600Z,6.46
2023-12-14T04:20:07.237Z,6.45
2023-12-14T04:22:34.226Z,6.40
2023-12-14T04:25:01.007Z,6.41
2023-12-14T04:27:29.997Z,6.41
2023-12-14T04:30:00.684Z,6.38
2023-12-14T04:32:32.749Z,6.38
2023-12-14T04:34:59.421Z,6.33
2023-12-14T04:37:33.676Z,6.27
2023-12-14T04:40:22.995Z,6.29
2023-12-14T04:42:49.643Z,6.28
2023-12-14T04:45:17.750Z,6.30
2023-12-14T04:47:44.289Z,6.30
2023-12-14T04:50:11.286Z,6.30
2023-12-14T04:52:39.333Z,6.25
2023-12-14T04:55:06.639Z,6.25
2023-12-14T04:57:33.238Z,6.21
2023-12-14T04:59:59.740Z,6.19
2023-12-14T05:02:26.376Z,6.22
2023-12-14T05:04:52.881Z,6.20
2023-12-14T05:07:19.498Z,6.22
2023-12-14T05:09:46.182Z,6.25
2023-12-14T05:12:12.697Z,6.27
2023-12-14T05:14:39.374Z,6.24
2023-12-14T05:17:05.948Z,6.26
2023-12-14T05:19:37.191Z,6.26
2023-12-14T05:22:04.471Z,6.27
2023-12-14T05:24:31.051Z,6.27
2023-12-14T05:26:58.716Z,6.27
2023-12-14T05:29:25.199Z,6.28
2023-12-14T05:31:57.801Z,6.28
2023-12-14T05:34:24.364Z,6.24
2023-12-14T05:36:50.944Z,6.26
2023-12-14T05:39:17.521Z,6.26
2023-12-14T05:41:44.057Z,6.27
2023-12-14T05:44:10.962Z,6.23
2023-12-14T05:46:37.605Z,6.24
2023-12-14T05:49:04.496Z,6.23
2023-12-14T05:51:32.376Z,6.17
2023-12-14T05:53:59.153Z,6.20
2023-12-14T05:56:26.635Z,6.22
2023-12-14T05:58:53.236Z,6.19
2023-12-14T06:01:20.067Z,6.19
2023-12-14T06:03:47.202Z,6.12
2023-12-14T06:06:17.322Z,6.06
2023-12-14T06:08:43.933Z,6.06
2023-12-14T06:11:10.676Z,6.09
2023-12-14T06:13:37.433Z,6.07
2023-12-14T06:16:04.310Z,6.04
2023-12-14T06:18:32.401Z,6.03
2023-12-14T06:20:59.053Z,6.03
2023-12-14T06:23:26.666Z,5.99
2023-12-14T06:25:53.358Z,5.98
2023-12-14T06:28:19.985Z,5.99
2023-12-14T06:30:46.637Z,5.99
2023-12-14T06:33:13.291Z,5.96
2023-12-14T06:35:39.933Z,5.91
2023-12-14T06:38:06.548Z,5.92
2023-12-14T06:40:33.081Z,5.97
2023-12-14T06:42:59.796Z,6.00
2023-12-14T06:45:26.380Z,6.00
2023-12-14T06:47:53.059Z,6.00
2023-12-14T06:50:19.773Z,5.98
2023-12-14T06:52:46.384Z,5.97
2023-12-14T06:55:13.025Z,5.96
2023-12-14T06:57:40.474Z,5.98
2023-12-14T07:00:07.749Z,5.93
2023-12-14T07:02:34.467Z,5.86
2023-12-14T07:05:01.262Z,5.86
2023-12-14T07:07:27.817Z,5.87
2023-12-14T07:09:54.409Z,5.81
2023-12-14T07:12:21.045Z,5.79
2023-12-14T07:14:47.730Z,5.77
2023-12-14T07:17:14.308Z,5.81
2023-12-14T07:19:40.829Z,5.83
2023-12-14T07:22:07.340Z,5.83
2023-12-14T07:24:40.734Z,5.82
2023-12-14T07:27:15.569Z,5.80
2023-12-14T07:29:42.163Z,5.78
2023-12-14T07:32:08.707Z,5.71
2023-12-14T07:34:35.805Z,5.73
2023-12-14T07:37:02.403Z,5.69
2023-12-14T07:39:28.935Z,5.65
2023-12-14T07:41:55.729Z,5.64
2023-12-14T07:44:22.998Z,5.65
2023-12-14T07:46:49.549Z,5.66
2023-12-14T07:49:16.129Z,5.70
2023-12-14T07:51:42.660Z,5.72
2023-12-14T07:54:09.183Z,5.73
2023-12-14T07:56:35.922Z,5.73
2023-12-14T07:59:34.867Z,5.72
2023-12-14T08:02:05.522Z,5.73
2023-12-14T08:04:33.007Z,5.74
2023-12-14T08:07:02.874Z,5.75
2023-12-14T08:09:29.397Z,5.73
2023-12-14T08:11:56.797Z,5.70
2023-12-14T08:14:50.409Z,5.73
2023-12-14T08:17:17.478Z,5.75
2023-12-14T08:19:44.531Z,5.75
2023-12-14T08:22:13.620Z,5.71
2023-12-14T08:24:40.625Z,5.67
2023-12-14T08:27:07.382Z,5.70
2023-12-14T08:29:34.136Z,5.73
2023-12-14T08:32:00.764Z,5.77
2023-12-14T08:34:28.488Z,5.78
2023-12-14T08:36:55.221Z,5.76
2023-12-14T08:39:21.900Z,5.77
2023-12-14T08:41:49.347Z,5.80
2023-12-14T08:44:16.736Z,5.83
2023-12-14T08:46:45.693Z,5.75
2023-12-14T08:49:13.220Z,5.74
2023-12-14T08:51:40.715Z,5.73
2023-12-14T08:54:07.744Z,5.75
2023-12-14T08:56:34.438Z,5.79
2023-12-14T08:59:01.349Z,5.75
2023-12-14T09:01:27.947Z,5.76
2023-12-14T09:03:54.503Z,5.75
2023-12-14T09:06:21.778Z,5.78
2023-12-14T09:08:48.377Z,5.79
2023-12-14T09:11:16.297Z,5.81
2023-12-14T09:13:43.341Z,5.82
2023-12-14T09:16:10.046Z,5.81
2023-12-14T09:18:36.536Z,5.84
2023-12-14T09:21:04.306Z,5.84
2023-12-14T09:23:31.135Z,5.84
2023-12-14T09:25:59.016Z,5.87
2023-12-14T09:28:26.149Z,5.85
2023-12-14T09:30:52.710Z,5.88
2023-12-14T09:33:19.331Z,5.89
2023-12-14T09:35:45.947Z,5.90
2023-12-14T09:38:15.029Z,5.91
2023-12-14T09:40:42.472Z,5.92
2023-12-14T09:43:09.917Z,5.90
2023-12-14T09:45:37.894Z,5.91
2023-12-14T09:48:04.786Z,5.89
2023-12-14T09:50:32.862Z,5.88
2023-12-14T09:52:59.375Z,5.89
2023-12-14T09:55:25.808Z,5.89
2023-12-14T09:57:52.249Z,5.87
2023-12-14T10:00:35.482Z,5.90
2023-12-14T10:03:18.365Z,5.91
2023-12-14T10:05:45.136Z,5.89
2023-12-14T10:08:11.927Z,5.93
2023-12-14T10:10:38.450Z,5.96
2023-12-14T10:13:05.155Z,5.97
2023-12-14T10:15:41.930Z,5.99
2023-12-14T10:18:08.855Z,5.98
2023-12-14T10:20:35.481Z,6.00
2023-12-14T10:23:01.972Z,6.01
2023-12-14T10:25:28.596Z,6.02
2023-12-14T10:27:55.526Z,6.01
2023-12-14T10:30:22.043Z,6.05
2023-12-14T10:32:49.986Z,6.07
2023-12-14T10:35:17.812Z,6.07
2023-12-14T10:37:44.381Z,6.06
2023-12-14T10:40:14.034Z,6.09
2023-12-14T10:42:45.136Z,6.13
2023-12-14T10:45:18.324Z,6.15
2023-12-14T10:47:49.300Z,6.15
2023-12-14T10:50:17.032Z,6.13
2023-12-14T10:52:44.072Z,6.15
2023-12-14T10:55:24.460Z,6.14
2023-12-14T10:57:53.284Z,6.13
2023-12-14T11:00:19.773Z,6.12
2023-12-14T11:02:47.464Z,6.12
2023-12-14T11:05:17.280Z,6.12
2023-12-14T11:07:48.137Z,6.13
2023-12-14T11:10:16.523Z,6.14
2023-12-14T11:12:53.173Z,6.15
2023-12-14T11:15:21.110Z,6.17
2023-12-14T11:18:09.719Z,6.19
2023-12-14T11:20:45.610Z,6.19
2023-12-14T11:23:16.113Z,6.19
2023-12-14T11:25:46.290Z,6.23
2023-12-14T11:28:14.656Z,6.29
2023-12-14T11:30:52.364Z,6.47
2023-12-14T11:33:22.561Z,6.58
2023-12-14T11:35:49.189Z,6.50
2023-12-14T11:38:16.499Z,6.46
2023-12-14T11:40:43.714Z,6.40
2023-12-14T11:43:10.816Z,6.48
2023-12-14T11:45:39.123Z,6.52
2023-12-14T11:48:07.901Z,6.55
2023-12-14T11:50:35.222Z,6.59
2023-12-14T11:53:04.401Z,6.54
2023-12-14T11:55:32.588Z,6.48
2023-12-14T11:57:59.821Z,6.44
2023-12-14T12:00:28.178Z,6.42
2023-12-14T12:03:09.088Z,6.44
2023-12-14T12:05:41.530Z,6.44
2023-12-14T12:08:09.728Z,6.44
2023-12-14T12:10:36.575Z,6.47
2023-12-14T12:13:08.760Z,6.49
2023-12-14T12:15:37.166Z,6.48
2023-12-14T12:18:06.377Z,6.48
2023-12-14T12:20:33.502Z,6.45
2023-12-14T12:23:01.792Z,6.47
2023-12-14T12:25:29.014Z,6.47
2023-12-14T12:27:59.190Z,6.46
2023-12-14T12:30:26.094Z,6.48
2023-12-14T12:32:52.973Z,6.48
2023-12-14T12:35:20.348Z,6.49
2023-12-14T12:37:47.126Z,6.49
2023-12-14T12:40:16.324Z,6.49
2023-12-14T12:42:42.773Z,6.46
2023-12-14T12:45:09.626Z,6.46
2023-12-14T12:47:36.295Z,6.47
2023-12-14T12:50:04.201Z,6.48
2023-12-14T12:52:30.849Z,6.50
2023-12-14T12:54:57.284Z,6.52
2023-12-14T12:57:23.744Z,6.53
2023-12-14T12:59:50.191Z,6.52
2023-12-14T13:02:16.789Z,6.50
2023-12-14T13:04:43.372Z,6.52
2023-12-14T13:07:09.909Z,6.53
2023-12-14T13:09:36.383Z,6.55
2023-12-14T13:12:03.766Z,6.50
2023-12-14T13:14:32.080Z,6.49
2023-12-14T13:17:00.676Z,6.47
2023-12-14T13:19:27.316Z,6.49
2023-12-14T13:21:53.940Z,6.50
2023-12-14T13:24:20.578Z,6.50
2023-12-14T13:26:47.334Z,6.49
2023-12-14T13:29:13.883Z,6.50
2023-12-14T13:31:40.389Z,6.52
2023-12-14T13:34:07.501Z,6.52
2023-12-14T13:36:33.957Z,6.52
2023-12-14T13:39:02.724Z,6.53
2023-12-14T13:41:29.381Z,6.53
2023-12-14T13:43:55.816Z,6.54
2023-12-14T13:46:24.855Z,6.57
2023-12-14T13:48:51.746Z,6.55
2023-12-14T13:51:18.246Z,6.58
2023-12-14T13:53:44.896Z,6.58
2023-12-14T13:56:11.385Z,6.59
2023-12-14T13:58:39.651Z,6.58
2023-12-14T14:01:09.719Z,6.60
2023-12-14T14:03:36.948Z,6.60
2023-12-14T14:06:03.844Z,6.63
2023-12-14T14:08:32.679Z,6.64
2023-12-14T14:10:59.885Z,6.64
2023-12-14T14:13:26.688Z,6.65
2023-12-14T14:15:53.310Z,6.65
2023-12-14T14:18:19.893Z,6.67
2023-12-14T14:20:46.426Z,6.67
2023-12-14T14:23:13.059Z,6.67
2023-12-14T14:25:39.652Z,6.66
2023-12-14T14:28:06.450Z,6.63
2023-12-14T14:30:32.955Z,6.63
2023-12-14T14:32:59.721Z,6.59
2023-12-14T14:35:26.446Z,6.59
2023-12-14T14:37:53.059Z,6.56
2023-12-14T14:40:19.633Z,6.57
2023-12-14T14:42:46.202Z,6.58
2023-12-14T14:45:12.767Z,6.55
2023-12-14T14:47:41.030Z,6.54
2023-12-14T14:50:08.509Z,6.55
2023-12-14T14:52:35.707Z,6.54
2023-12-14T14:55:02.579Z,6.48
2023-12-14T14:57:29.213Z,6.47
2023-12-14T14:59:55.766Z,6.47
2023-12-14T15:02:22.357Z,6.48
2023-12-14T15:04:48.907Z,6.47
2023-12-14T15:07:15.491Z,6.49
2023-12-14T15:09:41.970Z,6.50
2023-12-14T15:12:08.550Z,6.49
2023-12-14T15:14:35.033Z,6.47
2023-12-14T15:17:01.580Z,6.48
2023-12-14T15:19:27.997Z,6.47
2023-12-14T15:21:54.488Z,6.45
2023-12-14T15:24:21.025Z,6.43
2023-12-14T15:26:47.721Z,6.44
2023-12-14T15:29:14.311Z,6.43
2023-12-14T15:31:40.826Z,6.44
2023-12-14T15:34:10.244Z,6.44
2023-12-14T15:36:37.705Z,6.43
2023-12-14T15:39:05.453Z,6.43
2023-12-14T15:41:32.000Z,6.42
2023-12-14T15:43:58.465Z,6.39
2023-12-14T15:46:24.967Z,6.36
2023-12-14T15:48:51.447Z,6.37
2023-12-14T15:51:17.955Z,6.38
2023-12-14T15:53:44.516Z,6.36
2023-12-14T15:56:11.140Z,6.35
2023-12-14T15:58:37.652Z,6.34
2023-12-14T16:01:04.356Z,6.32
2023-12-14T16:03:32.163Z,6.31
2023-12-14T16:05:58.995Z,6.27
2023-12-14T16:08:25.651Z,6.25
2023-12-14T16:10:54.416Z,6.24
2023-12-14T16:13:20.985Z,6.20
2023-12-14T16:15:47.526Z,6.15
2023-12-14T16:18:14.826Z,6.14
2023-12-14T16:20:41.408Z,6.14
2023-12-14T16:23:07.991Z,6.15
2023-12-14T16:25:34.441Z,6.15
2023-12-14T16:28:00.974Z,6.14
2023-12-14T16:30:27.505Z,6.16
2023-12-14T16:32:55.683Z,6.16
2023-12-14T16:35:22.220Z,6.15
2023-12-14T16:37:48.740Z,6.15
2023-12-14T16:40:15.359Z,6.15
2023-12-14T16:42:41.838Z,6.13
2023-12-14T16:45:09.840Z,6.12
2023-12-14T16:47:36.416Z,6.10
2023-12-14T16:50:03.527Z,6.13
2023-12-14T16:52:30.221Z,6.12
2023-12-14T16:54:56.686Z,6.15
2023-12-14T16:57:23.113Z,6.14
2023-12-14T16:59:49.676Z,6.15
2023-12-14T17:02:16.141Z,6.14
2023-12-14T17:04:43.063Z,6.14
2023-12-14T17:07:09.564Z,6.14
2023-12-14T17:09:36.013Z,6.14
2023-12-14T17:12:02.517Z,6.15
2023-12-14T17:14:29.007Z,6.14
2023-12-14T17:16:55.615Z,6.15
2023-12-14T17:19:22.243Z,6.15
2023-12-14T17:21:51.242Z,6.14
2023-12-14T17:24:18.102Z,6.14
2023-12-14T17:26:44.536Z,6.15
2023-12-14T17:29:11.579Z,6.17
2023-12-14T17:31:38.566Z,6.15
2023-12-14T17:34:05.415Z,6.16
2023-12-14T17:36:32.086Z,6.14
2023-12-14T17:39:00.242Z,6.15
2023-12-14T17:41:27.893Z,6.15
2023-12-14T17:43:54.370Z,6.15
2023-12-14T17:46:21.839Z,6.15
2023-12-14T17:48:48.440Z,6.15
2023-12-14T17:51:14.921Z,6.14
2023-12-14T17:53:42.020Z,6.16
2023-12-14T17:56:09.123Z,6.15
2023-12-14T17:58:35.709Z,6.13
2023-12-14T18:01:05.677Z,6.14
2023-12-14T18:03:33.564Z,6.10
2023-12-14T18:06:02.301Z,6.10
2023-12-14T18:08:29.168Z,6.12
2023-12-14T18:10:57.661Z,6.11
2023-12-14T18:13:25.192Z,6.11
2023-12-14T18:15:51.969Z,6.10
2023-12-14T18:18:21.169Z,6.10
2023-12-14T18:20:47.809Z,6.10
2023-12-14T18:23:14.355Z,6.09
2023-12-14T18:25:40.968Z,6.08
2023-12-14T18:28:07.467Z,6.06
2023-12-14T18:30:34.448Z,6.05
2023-12-14T18:33:00.976Z,6.07
2023-12-14T18:35:27.501Z,6.07
2023-12-14T18:37:53.976Z,6.08
2023-12-14T18:40:23.359Z,6.08
2023-12-14T18:42:50.417Z,6.09
2023-12-14T18:45:16.882Z,6.07
2023-12-14T18:47:43.429Z,6.07
2023-12-14T18:50:10.197Z,6.07
2023-12-14T18:52:36.656Z,6.07
2023-12-14T18:55:04.126Z,6.06
2023-12-14T18:57:30.993Z,6.03
2023-12-14T18:59:57.729Z,6.04
2023-12-14T19:02:28.562Z,6.04
2023-12-14T19:04:55.624Z,6.07
2023-12-14T19:07:22.311Z,6.07
2023-12-14T19:09:48.825Z,6.05
2023-12-14T19:12:15.330Z,6.05
2023-12-14T19:14:41.767Z,6.06
2023-12-14T19:17:08.396Z,6.05
2023-12-14T19:19:37.837Z,6.07
2023-12-14T19:22:04.497Z,6.06
2023-12-14T19:24:30.908Z,6.08
2023-12-14T19:26:57.452Z,6.08
2023-12-14T19:29:23.954Z,6.10
2023-12-14T19:31:50.854Z,6.09
2023-12-14T19:34:17.330Z,6.10
2023-12-14T19:36:43.774Z,6.11
2023-12-14T19:39:10.234Z,6.13
2023-12-14T19:41:38.980Z,6.14
2023-12-14T19:44:05.833Z,6.15
2023-12-14T19:46:33.554Z,6.13
2023-12-14T19:49:00.091Z,6.16
2023-12-14T19:51:26.657Z,6.17
2023-12-14T19:53:53.124Z,6.18
2023-12-14T19:56:19.675Z,6.19
2023-12-14T19:58:46.989Z,6.20
2023-12-14T20:01:15.258Z,6.22
2023-12-14T20:03:41.822Z,6.22
2023-12-14T20:06:08.676Z,6.22
2023-12-14T20:08:35.158Z,6.21
2023-12-14T20:11:01.738Z,6.20
2023-12-14T20:13:28.519Z,6.22
2023-12-14T20:15:55.191Z,6.23
2023-12-14T20:18:21.766Z,6.20
2023-12-14T20:20:50.561Z,6.20
2023-12-14T20:23:17.015Z,6.18
2023-12-14T20:25:43.663Z,6.20
2023-12-14T20:28:10.081Z,6.22
2023-12-14T20:30:36.551Z,6.23
2023-12-14T20:33:03.593Z,6.23
2023-12-14T20:35:30.194Z,6.22
2023-12-14T20:37:57.092Z,6.20
2023-12-14T20:40:23.662Z,6.22
2023-12-14T20:42:50.101Z,6.20
2023-12-14T20:45:16.888Z,6.22
2023-12-14T20:47:43.457Z,6.24
2023-12-14T20:50:10.347Z,6.24
2023-12-14T20:52:40.811Z,6.25
2023-12-14T20:55:07.687Z,6.22
2023-12-14T20:57:34.513Z,6.24
2023-12-14T21:00:01.162Z,6.24
2023-12-14T21:02:27.749Z,6.27
2023-12-14T21:04:54.354Z,6.28
2023-12-14T21:07:21.049Z,6.28
2023-12-14T21:09:47.767Z,6.30
2023-12-14T21:12:14.428Z,6.29
2023-12-14T21:14:40.827Z,6.28
2023-12-14T21:17:07.349Z,6.29
2023-12-14T21:19:35.901Z,6.32
2023-12-14T21:22:02.625Z,6.32
2023-12-14T21:24:30.780Z,6.32
2023-12-14T21:27:16.016Z,6.32
2023-12-14T21:29:43.443Z,6.31
2023-12-14T21:32:09.931Z,6.32
2023-12-14T21:34:36.390Z,6.31
2023-12-14T21:37:03.019Z,6.32
2023-12-14T21:39:29.467Z,6.31
2023-12-14T21:41:55.960Z,6.31
2023-12-14T21:44:22.471Z,6.34
2023-12-14T21:46:49.065Z,6.35
2023-12-14T21:49:19.141Z,6.34
2023-12-14T21:51:45.864Z,6.35
2023-12-14T21:54:12.412Z,6.37
2023-12-14T21:56:38.890Z,6.37
2023-12-14T21:59:05.445Z,6.36
2023-12-14T22:01:32.883Z,6.39
2023-12-14T22:04:00.734Z,6.41
2023-12-14T22:06:27.362Z,6.40
2023-12-14T22:08:54.179Z,6.41
2023-12-14T22:11:20.964Z,6.42
2023-12-14T22:13:47.530Z,6.41
2023-12-14T22:16:14.901Z,6.41
2023-12-14T22:18:41.540Z,6.41
2023-12-14T22:21:07.988Z,6.42
2023-12-14T22:23:34.430Z,6.43
2023-12-14T22:26:01.079Z,6.44
2023-12-14T22:28:27.501Z,6.44
2023-12-14T22:30:54.084Z,6.47
2023-12-14T22:33:20.535Z,6.48
2023-12-14T22:35:46.988Z,6.48
2023-12-14T22:38:13.815Z,6.46
2023-12-14T22:40:40.256Z,6.47
2023-12-14T22:43:06.706Z,6.48
2023-12-14T22:45:33.645Z,6.47
2023-12-14T22:48:07.665Z,6.48
2023-12-14T22:50:34.135Z,6.47
2023-12-14T22:53:07.363Z,6.48
2023-12-14T22:55:36.494Z,6.48
2023-12-14T22:58:05.208Z,6.47
2023-12-14T23:00:33.976Z,6.48
2023-12-14T23:03:00.602Z,6.46
2023-12-14T23:05:27.159Z,6.46
2023-12-14T23:07:59.264Z,6.47
2023-12-14T23:10:26.131Z,6.47
2023-12-14T23:12:58.298Z,6.50
2023-12-14T23:15:24.778Z,6.52
2023-12-14T23:17:54.868Z,6.53
2023-12-14T23:20:21.602Z,6.55
2023-12-14T23:22:48.098Z,6.57
2023-12-14T23:25:16.241Z,6.55
2023-12-14T23:27:47.444Z,6.53
2023-12-14T23:30:14.254Z,6.55
2023-12-14T23:32:40.847Z,6.55
2023-12-14T23:35:07.848Z,6.54
2023-12-14T23:37:34.840Z,6.55
2023-12-14T23:40:01.506Z,6.54
2023-12-14T23:42:27.948Z,6.54
2023-12-14T23:44:54.380Z,6.53
2023-12-14T23:47:20.870Z,6.52
2023-12-14T23:49:47.377Z,6.53
2023-12-14T23:52:13.853Z,6.53
2023-12-14T23:54:43.367Z,6.49
2023-12-14T23:57:09.837Z,6.50
2023-12-14T23:59:36.277Z,6.50
